Time;durP1;ratioP1;P1;durP2;ratioP2;P2;SDS_P1;SDS_P2;PMS_P1;PMS_P2;Temp;Humidity;BMP_temperature;BMP_pressure;BME280_temperature;BME280_humidity;BME280_pressure;Samples;Min_cycle;Max_cycle;Signal;HPM_P1;HPM_P2
2023/06/03 00:01:58;;;;;;;0.20;0.13;;;;;;;14.46;54.38;101688.41;5048803;28;20211;-52
2023/06/03 00:04:23;;;;;;;0.10;0.10;;;;;;;14.35;54.38;101687.41;5042686;28;20041;-53
2023/06/03 00:06:49;;;;;;;0.60;0.60;;;;;;;14.36;54.98;101678.13;5040472;28;20487;-51
2023/06/03 00:09:14;;;;;;;0.20;0.15;;;;;;;14.25;55.23;101684.44;5041548;28;20029;-50
2023/06/03 00:11:41;;;;;;;0.20;0.20;;;;;;;14.21;55.17;101691.69;5038630;28;20107;-53
2023/06/03 00:14:07;;;;;;;0.20;0.20;;;;;;;14.12;55.59;101680.28;5043068;28;20347;-52
2023/06/03 00:16:32;;;;;;;0.10;0.10;;;;;;;14.12;55.86;101689.19;5042742;28;20024;-53
2023/06/03 00:18:58;;;;;;;0.30;0.20;;;;;;;14.00;55.99;101689.28;5048345;28;20040;-53
2023/06/03 00:21:28;;;;;;;0.73;0.20;;;;;;;14.09;55.78;101695.28;5047044;28;20408;-54
2023/06/03 00:23:54;;;;;;;0.43;0.23;;;;;;;14.00;56.67;101692.00;5034110;28;20076;-49
2023/06/03 00:26:21;;;;;;;0.73;0.30;;;;;;;13.78;57.56;101692.63;5041267;28;20064;-50
2023/06/03 00:28:52;;;;;;;0.45;0.30;;;;;;;13.58;58.24;101697.19;5036015;28;20028;-49
2023/06/03 00:31:18;;;;;;;0.95;0.25;;;;;;;13.46;58.96;101691.84;5047094;28;20344;-51
2023/06/03 00:33:44;;;;;;;0.22;0.22;;;;;;;13.70;58.44;101687.41;5043113;28;20053;-50
2023/06/03 00:36:09;;;;;;;0.17;0.17;;;;;;;13.70;58.27;101688.19;5034235;28;20068;-48
2023/06/03 00:38:35;;;;;;;0.63;0.38;;;;;;;13.60;58.06;101688.72;5041374;28;20297;-50
2023/06/03 00:41:01;;;;;;;0.10;0.10;;;;;;;13.64;57.89;101686.09;5031788;28;20104;-49
2023/06/03 00:43:26;;;;;;;0.20;0.20;;;;;;;13.60;57.86;101688.72;5038970;28;20091;-51
2023/06/03 00:45:53;;;;;;;0.85;0.32;;;;;;;13.62;57.83;101691.88;5040832;28;20048;-51
2023/06/03 00:48:18;;;;;;;1.10;0.82;;;;;;;13.55;57.87;101691.66;5044729;28;20252;-50
2023/06/03 00:50:44;;;;;;;1.40;0.40;;;;;;;13.62;57.85;101685.66;5044077;28;20108;-49
2023/06/03 00:53:10;;;;;;;2.92;0.35;;;;;;;13.58;58.40;101696.41;5046589;28;20033;-51
2023/06/03 00:55:37;;;;;;;0.73;0.30;;;;;;;13.55;58.04;101697.06;5044440;28;20494;-49
2023/06/03 00:58:03;;;;;;;1.10;0.75;;;;;;;13.47;58.89;101698.06;5044445;28;20391;-48
2023/06/03 01:00:28;;;;;;;0.20;0.20;;;;;;;13.41;59.13;101702.16;5033627;28;20033;-54
2023/06/03 01:02:55;;;;;;;0.10;0.10;;;;;;;13.37;59.40;101702.06;5042764;28;20239;-50
2023/06/03 01:05:22;;;;;;;0.20;0.20;;;;;;;13.31;58.91;101699.94;5035597;28;20471;-49
2023/06/03 01:08:55;;;;;;;0.20;0.20;;;;;;;13.10;60.49;101700.19;5031476;28;20032;-51
2023/06/03 01:11:34;;;;;;;0.10;0.10;;;;;;;12.92;61.08;101706.19;4963808;28;20045;-49
2023/06/03 01:14:17;;;;;;;0.75;0.30;;;;;;;12.85;61.45;101697.91;5039556;28;20606;-52
2023/06/03 01:16:48;;;;;;;0.40;0.13;;;;;;;12.90;61.09;101703.84;5040630;28;20037;-49
2023/06/03 01:19:36;;;;;;;0.17;0.10;;;;;;;13.04;60.70;101708.88;5048383;28;20574;-48
2023/06/03 01:22:03;;;;;;;0.20;0.20;;;;;;;12.97;61.96;101697.84;5036350;28;20017;-48
2023/06/03 01:24:32;;;;;;;0.40;0.40;;;;;;;13.06;61.68;101703.91;5041087;28;20124;-50
2023/06/03 01:26:58;;;;;;;0.63;0.40;;;;;;;12.99;61.22;101698.28;5029107;28;20061;-50
2023/06/03 01:29:24;;;;;;;0.32;0.30;;;;;;;12.94;61.59;101693.13;5046209;28;20056;-52
2023/06/03 01:31:53;;;;;;;0.30;0.30;;;;;;;12.88;61.61;101705.31;5044787;28;20111;-48
2023/06/03 01:34:18;;;;;;;0.20;0.20;;;;;;;12.73;61.48;101700.63;5037578;28;20037;-50
2023/06/03 01:36:44;;;;;;;0.20;0.20;;;;;;;12.79;62.37;101701.97;5036400;28;20099;-50
2023/06/03 01:39:11;;;;;;;0.95;0.20;;;;;;;12.72;62.70;101707.19;5044467;28;20462;-50
2023/06/03 01:41:37;;;;;;;0.22;0.22;;;;;;;12.68;62.61;101702.44;5042011;28;20021;-48
2023/06/03 01:44:04;;;;;;;0.43;0.30;;;;;;;12.73;62.34;101709.53;5020764;28;20033;-54
2023/06/03 01:46:50;;;;;;;0.20;0.20;;;;;;;12.68;62.90;101705.16;5040257;28;20036;-55
2023/06/03 01:49:17;;;;;;;0.20;0.20;;;;;;;12.56;63.45;101707.13;4966772;28;20034;-51
2023/06/03 01:51:44;;;;;;;0.68;0.40;;;;;;;12.48;63.21;101708.03;4965630;28;20207;-50
2023/06/03 01:54:09;;;;;;;0.85;0.52;;;;;;;12.28;64.51;101706.25;4982698;28;20132;-49
2023/06/03 01:56:35;;;;;;;0.20;0.20;;;;;;;12.33;64.09;101706.03;4971995;28;20125;-52
2023/06/03 01:59:01;;;;;;;0.20;0.20;;;;;;;12.24;64.69;101716.94;4986992;28;20129;-54
2023/06/03 02:01:27;;;;;;;0.32;0.25;;;;;;;12.12;65.64;101722.34;4981766;28;20584;-48
2023/06/03 02:03:53;;;;;;;0.55;0.15;;;;;;;12.16;65.34;101717.06;4986719;28;20050;-51
2023/06/03 02:06:18;;;;;;;0.25;0.25;;;;;;;12.11;65.65;101720.00;4966413;28;20048;-48
2023/06/03 02:08:44;;;;;;;0.10;0.10;;;;;;;12.07;66.15;101724.50;4968540;28;20092;-51
2023/06/03 02:11:09;;;;;;;0.88;0.25;;;;;;;12.06;66.05;101720.22;4969621;28;20030;-51
2023/06/03 02:13:35;;;;;;;0.40;0.40;;;;;;;12.06;66.30;101714.84;4970338;28;20045;-50
2023/06/03 02:16:01;;;;;;;0.40;0.32;;;;;;;11.94;66.14;101709.44;4980888;28;20512;-52
2023/06/03 02:18:26;;;;;;;0.63;0.40;;;;;;;11.86;66.41;101708.41;4987880;28;20064;-50
2023/06/03 02:20:52;;;;;;;0.25;0.25;;;;;;;11.84;66.85;101716.06;4980164;28;20031;-51
2023/06/03 02:23:17;;;;;;;0.32;0.32;;;;;;;11.80;67.54;101709.75;4964767;28;20123;-54
2023/06/03 02:25:43;;;;;;;0.30;0.30;;;;;;;11.96;66.80;101710.69;4999229;28;20427;-48
2023/06/03 02:28:09;;;;;;;2.60;0.57;;;;;;;11.77;67.51;101715.81;5048616;28;20522;-48
2023/06/03 02:30:35;;;;;;;0.30;0.30;;;;;;;11.79;67.63;101708.16;5047053;28;20025;-48
2023/06/03 02:33:23;;;;;;;0.40;0.40;;;;;;;11.96;67.22;101713.38;5038510;28;20017;-51
2023/06/03 02:35:48;;;;;;;0.10;0.10;;;;;;;11.87;66.69;101717.28;4977794;28;20418;-52
2023/06/03 02:38:14;;;;;;;0.40;0.40;;;;;;;11.76;67.53;101709.66;4985064;28;20132;-48
2023/06/03 02:40:40;;;;;;;0.10;0.10;;;;;;;11.65;67.35;101711.19;4968517;28;20038;-48
2023/06/03 02:43:05;;;;;;;0.43;0.30;;;;;;;11.77;67.60;101711.22;4980502;28;20442;-53
2023/06/03 02:45:31;;;;;;;0.15;0.15;;;;;;;11.67;67.62;101713.56;4967078;28;20046;-50
2023/06/03 02:47:57;;;;;;;1.40;0.82;;;;;;;11.61;68.40;101710.25;4951855;28;20124;-48
2023/06/03 02:50:23;;;;;;;0.40;0.30;;;;;;;11.59;67.89;101709.81;4987017;28;20142;-50
2023/06/03 02:52:48;;;;;;;0.20;0.20;;;;;;;11.56;68.98;101704.28;4967153;28;20050;-48
2023/06/03 02:55:16;;;;;;;0.20;0.20;;;;;;;11.52;68.66;101708.78;4965714;28;20109;-49
2023/06/03 02:57:41;;;;;;;0.40;0.32;;;;;;;11.66;67.95;101720.09;4960162;28;20042;-51
2023/06/03 03:00:11;;;;;;;0.30;0.30;;;;;;;11.61;67.88;101717.59;4986048;28;20184;-48
2023/06/03 03:02:37;;;;;;;0.28;0.28;;;;;;;11.60;68.57;101716.00;4981321;28;20060;-48
2023/06/03 03:05:03;;;;;;;0.45;0.40;;;;;;;11.56;68.62;101715.09;4973301;28;20045;-49
2023/06/03 03:07:32;;;;;;;0.30;0.30;;;;;;;11.49;68.42;101706.75;4947230;28;20054;-48
2023/06/03 03:09:58;;;;;;;0.43;0.43;;;;;;;11.40;69.11;101706.84;4952518;28;20125;-48
2023/06/03 03:12:24;;;;;;;0.30;0.30;;;;;;;11.38;69.55;101717.19;4981682;28;20037;-49
2023/06/03 03:14:50;;;;;;;0.30;0.30;;;;;;;11.47;68.60;101714.41;5030241;28;20138;-48
2023/06/03 03:17:16;;;;;;;0.57;0.52;;;;;;;11.54;68.97;101714.63;5060853;28;20065;-49
2023/06/03 03:19:42;;;;;;;0.28;0.28;;;;;;;11.43;68.74;101719.69;5045408;28;20107;-48
2023/06/03 03:22:09;;;;;;;0.32;0.32;;;;;;;11.30;69.78;101717.28;5048567;28;20048;-48
2023/06/03 03:24:35;;;;;;;0.75;0.43;;;;;;;11.28;69.47;101725.72;5037467;28;20519;-49
2023/06/03 03:27:00;;;;;;;0.43;0.43;;;;;;;11.22;70.75;101726.25;5045082;28;20120;-52
2023/06/03 03:29:27;;;;;;;0.40;0.40;;;;;;;11.30;70.56;101723.47;5039286;28;20067;-48
2023/06/03 03:32:06;;;;;;;0.47;0.47;;;;;;;11.31;70.16;101729.63;5028363;28;20063;-48
2023/06/03 03:34:36;;;;;;;0.40;0.40;;;;;;;11.38;70.32;101730.66;5042458;28;20442;-52
2023/06/03 03:37:04;;;;;;;0.30;0.30;;;;;;;11.12;70.50;101732.84;5037896;28;20029;-50
2023/06/03 03:39:29;;;;;;;0.38;0.22;;;;;;;11.12;70.87;101732.03;5061487;28;20021;-51
2023/06/03 03:41:55;;;;;;;0.88;0.57;;;;;;;11.24;70.85;101732.88;5043641;28;20032;-51
2023/06/03 03:44:22;;;;;;;0.50;0.50;;;;;;;11.19;71.60;101738.47;5040786;28;20523;-51
2023/06/03 03:46:52;;;;;;;0.20;0.20;;;;;;;11.21;70.88;101738.94;5032874;28;20242;-50
2023/06/03 03:49:26;;;;;;;0.40;0.40;;;;;;;11.10;71.51;101736.97;5044092;28;20467;-48
2023/06/03 03:51:52;;;;;;;0.30;0.30;;;;;;;11.04;72.55;101735.59;5043221;28;20035;-49
2023/06/03 03:54:23;;;;;;;2.13;0.50;;;;;;;11.10;72.07;101739.66;5049003;28;20032;-49
2023/06/03 03:56:56;;;;;;;0.50;0.47;;;;;;;11.14;72.52;101738.69;5045556;28;20544;-51
2023/06/03 03:59:26;;;;;;;0.55;0.30;;;;;;;11.27;71.94;101734.13;5050226;28;20116;-48
2023/06/03 04:01:53;;;;;;;0.40;0.40;;;;;;;11.47;71.35;101738.69;5046940;28;20025;-48
2023/06/03 04:04:41;;;;;;;0.38;0.38;;;;;;;11.57;71.45;101738.25;5045322;28;20056;-51
2023/06/03 04:07:10;;;;;;;0.30;0.30;;;;;;;11.64;71.08;101747.38;5039819;28;20029;-53
2023/06/03 04:09:37;;;;;;;0.45;0.40;;;;;;;11.72;70.97;101740.34;5042712;28;20068;-49
2023/06/03 04:12:06;;;;;;;0.88;0.47;;;;;;;11.85;70.44;101733.81;5041456;28;20013;-48
2023/06/03 04:14:48;;;;;;;0.20;0.20;;;;;;;11.95;69.58;101736.06;5048168;28;20032;-48
2023/06/03 04:17:19;;;;;;;0.20;0.20;;;;;;;11.99;69.69;101734.28;5036793;28;20036;-48
2023/06/03 04:19:48;;;;;;;0.30;0.30;;;;;;;12.09;69.62;101739.25;5019293;28;20492;-49
2023/06/03 04:22:21;;;;;;;0.30;0.30;;;;;;;12.07;70.01;101746.09;5049287;28;20381;-49
2023/06/03 04:24:59;;;;;;;0.85;0.50;;;;;;;12.17;70.15;101743.75;5037874;28;20048;-53
2023/06/03 04:27:45;;;;;;;0.20;0.20;;;;;;;12.20;69.47;101755.75;5043796;28;20036;-49
2023/06/03 04:30:15;;;;;;;0.60;0.60;;;;;;;12.17;69.41;101754.53;5049308;28;20051;-49
2023/06/03 04:32:40;;;;;;;0.38;0.38;;;;;;;12.13;69.53;101756.34;5046080;28;20052;-48
2023/06/03 04:35:06;;;;;;;0.20;0.20;;;;;;;12.32;68.56;101748.47;5040057;28;20021;-51
2023/06/03 04:37:35;;;;;;;0.30;0.30;;;;;;;12.35;68.45;101750.47;5037487;28;20086;-48
2023/06/03 04:40:01;;;;;;;0.15;0.15;;;;;;;12.34;67.60;101743.50;5049766;28;20078;-48
2023/06/03 04:42:30;;;;;;;0.55;0.40;;;;;;;12.50;67.85;101747.06;5044801;28;20096;-50
2023/06/03 04:44:58;;;;;;;0.32;0.28;;;;;;;12.51;67.70;101748.66;5048030;28;20040;-47
2023/06/03 04:47:28;;;;;;;0.40;0.40;;;;;;;12.61;67.45;101745.50;5048138;28;20638;-49
2023/06/03 04:49:55;;;;;;;0.20;0.20;;;;;;;12.73;67.00;101746.59;5047477;28;20107;-50
2023/06/03 04:52:20;;;;;;;0.20;0.20;;;;;;;12.62;66.85;101740.84;5037464;28;20549;-49
2023/06/03 04:54:51;;;;;;;0.20;0.20;;;;;;;12.68;66.73;101755.69;5049275;28;20025;-52
2023/06/03 04:57:20;;;;;;;0.35;0.35;;;;;;;12.70;67.68;101753.44;5048615;28;20028;-49
2023/06/03 04:59:45;;;;;;;0.70;0.45;;;;;;;12.77;66.76;101750.19;5036584;28;20129;-52
2023/06/03 05:02:16;;;;;;;0.38;0.38;;;;;;;12.86;66.60;101753.53;5039106;28;20155;-54
2023/06/03 05:04:44;;;;;;;0.90;0.20;;;;;;;12.71;66.52;101749.63;5046274;28;20037;-53
2023/06/03 05:07:11;;;;;;;0.38;0.38;;;;;;;12.90;65.98;101749.78;5041749;28;20076;-50
2023/06/03 05:09:39;;;;;;;0.20;0.20;;;;;;;13.20;65.70;101751.06;5042108;28;20029;-53
2023/06/03 05:12:05;;;;;;;0.90;0.32;;;;;;;13.73;65.94;101748.97;5048949;28;21313;-52
2023/06/03 05:14:33;;;;;;;0.10;0.10;;;;;;;14.52;64.00;101753.22;5049333;28;20033;-53
2023/06/03 05:16:58;;;;;;;0.20;0.20;;;;;;;15.12;60.93;101752.53;5044011;28;20609;-50
2023/06/03 05:19:24;;;;;;;0.32;0.20;;;;;;;15.65;59.62;101762.47;5035208;28;20085;-51
2023/06/03 05:21:51;;;;;;;0.57;0.40;;;;;;;16.08;56.53;101764.78;5045282;28;20025;-48
2023/06/03 05:24:17;;;;;;;0.30;0.20;;;;;;;16.38;55.34;101761.31;5037815;28;20528;-50
2023/06/03 05:26:42;;;;;;;0.65;0.38;;;;;;;16.70;54.65;101766.09;5045308;28;20049;-51
2023/06/03 05:29:08;;;;;;;0.38;0.30;;;;;;;17.09;54.27;101763.88;5041940;28;20380;-51
2023/06/03 05:31:34;;;;;;;0.30;0.28;;;;;;;17.36;53.61;101772.72;5032712;28;20025;-52
2023/06/03 05:34:01;;;;;;;0.10;0.10;;;;;;;17.65;52.43;101772.66;5048115;28;20544;-53
2023/06/03 05:36:27;;;;;;;0.17;0.17;;;;;;;17.63;50.57;101777.72;5047342;28;20045;-50
2023/06/03 05:38:56;;;;;;;0.15;0.10;;;;;;;17.75;51.00;101774.69;5038284;28;20025;-52
2023/06/03 05:41:21;;;;;;;0.30;0.30;;;;;;;18.04;50.37;101771.06;5040152;28;20055;-50
2023/06/03 05:43:47;;;;;;;0.20;0.20;;;;;;;18.10;49.26;101776.19;5048639;28;20037;-54
2023/06/03 05:46:13;;;;;;;0.10;0.05;;;;;;;18.15;49.50;101765.69;5033926;28;20029;-50
2023/06/03 05:48:38;;;;;;;0.30;0.20;;;;;;;18.14;48.92;101777.75;5036307;28;20099;-53
2023/06/03 05:51:05;;;;;;;0.52;0.20;;;;;;;18.25;49.04;101764.19;5034004;28;20034;-49
2023/06/03 05:53:31;;;;;;;1.70;0.17;;;;;;;18.31;48.85;101757.25;5036986;28;20031;-49
2023/06/03 05:55:59;;;;;;;0.55;0.20;;;;;;;18.47;48.69;101771.38;5048077;28;20043;-49
2023/06/03 05:58:27;;;;;;;0.32;0.30;;;;;;;18.37;48.61;101774.81;5045657;28;20037;-54
2023/06/03 06:00:53;;;;;;;0.68;0.10;;;;;;;18.46;48.58;101767.88;5032884;28;20029;-49
2023/06/03 06:03:18;;;;;;;0.65;0.35;;;;;;;18.66;47.75;101776.59;5039243;28;20487;-50
2023/06/03 06:05:45;;;;;;;0.13;0.10;;;;;;;18.77;46.41;101780.94;5032338;28;20047;-49
2023/06/03 06:08:14;;;;;;;1.48;0.20;;;;;;;18.34;46.14;101776.34;5036970;28;20042;-50
2023/06/03 06:10:39;;;;;;;0.00;0.00;;;;;;;18.63;47.89;101780.06;5035238;28;20028;-51
2023/06/03 06:13:05;;;;;;;0.08;0.08;;;;;;;18.86;47.09;101775.09;5047782;28;20021;-52
2023/06/03 06:15:31;;;;;;;0.20;0.17;;;;;;;19.10;44.71;101779.91;5048080;28;20029;-52
2023/06/03 06:17:58;;;;;;;0.08;0.08;;;;;;;19.03;43.76;101784.56;5048160;28;20017;-54
2023/06/03 06:20:24;;;;;;;0.52;0.30;;;;;;;18.98;44.45;101782.19;5045688;28;20029;-50
2023/06/03 06:22:50;;;;;;;0.00;0.00;;;;;;;19.08;44.18;101776.78;5047757;28;20029;-52
2023/06/03 06:25:16;;;;;;;0.05;0.00;;;;;;;19.05;43.90;101780.25;5047408;28;20164;-49
2023/06/03 06:27:43;;;;;;;0.30;0.08;;;;;;;19.16;42.07;101783.84;5040698;28;20025;-52
2023/06/03 06:30:14;;;;;;;0.30;0.20;;;;;;;18.98;42.82;101788.44;5044281;28;20033;-52
2023/06/03 06:32:58;;;;;;;0.50;0.20;;;;;;;19.16;42.84;101786.56;5036095;28;20040;-50
2023/06/03 06:35:32;;;;;;;;;;;;;;;18.78;43.35;101795.34;5036514;28;20029;-51
2023/06/03 06:37:58;;;;;;;0.00;0.00;;;;;;;18.25;43.28;101796.94;5038408;28;20304;-52
2023/06/03 06:40:30;;;;;;;0.20;0.20;;;;;;;18.54;44.57;101782.34;5016982;28;20029;-54
2023/06/03 06:42:55;;;;;;;0.10;0.10;;;;;;;18.57;44.19;101784.31;5041407;28;20419;-49
2023/06/03 06:45:42;;;;;;;0.20;0.10;;;;;;;18.62;44.25;101792.16;5040304;28;20511;-49
2023/06/03 06:48:12;;;;;;;0.10;0.10;;;;;;;18.78;43.37;101782.47;5041408;28;20028;-53
2023/06/03 06:50:53;;;;;;;0.28;0.20;;;;;;;19.17;42.93;101788.13;5044222;28;20036;-50
2023/06/03 06:53:23;;;;;;;;;;;;;;;19.15;42.74;101789.66;5031315;28;20048;-49
2023/06/03 06:55:53;;;;;;;0.00;0.00;;;;;;;19.41;43.35;101776.53;5040016;28;20269;-50
2023/06/03 06:58:30;;;;;;;0.20;0.10;;;;;;;19.46;42.42;101786.28;5040807;28;20043;-51
2023/06/03 07:00:57;;;;;;;0.10;0.10;;;;;;;19.61;43.15;101774.97;5056664;28;20176;-52
2023/06/03 07:03:23;;;;;;;0.15;0.10;;;;;;;19.72;43.33;101773.03;5026529;28;20025;-53
2023/06/03 07:05:52;;;;;;;0.03;0.03;;;;;;;19.86;41.82;101771.50;5039142;28;20037;-50
2023/06/03 07:08:18;;;;;;;0.75;0.20;;;;;;;19.77;41.81;101780.06;5052325;28;20033;-52
2023/06/03 07:10:44;;;;;;;0.20;0.20;;;;;;;20.10;41.61;101778.91;5041753;28;20033;-53
2023/06/03 07:13:13;;;;;;;0.00;0.00;;;;;;;20.25;40.35;101772.28;5039532;28;20506;-54
2023/06/03 07:15:39;;;;;;;0.40;0.10;;;;;;;20.41;40.20;101781.66;5046408;28;20033;-53
2023/06/03 07:18:05;;;;;;;0.22;0.10;;;;;;;20.55;41.48;101778.09;5029734;28;20445;-52
2023/06/03 07:20:36;;;;;;;0.03;0.03;;;;;;;20.75;41.55;101783.91;5036126;28;20027;-52
2023/06/03 07:23:10;;;;;;;0.20;0.20;;;;;;;21.05;40.99;101778.75;5031183;28;20030;-50
2023/06/03 07:25:42;;;;;;;0.10;0.10;;;;;;;21.12;40.74;101778.69;5058117;28;20045;-51
2023/06/03 07:28:12;;;;;;;0.10;0.10;;;;;;;21.03;40.27;101770.13;5041357;28;20483;-50
2023/06/03 07:30:41;;;;;;;0.70;0.28;;;;;;;20.49;40.46;101774.19;5049799;28;20410;-49
2023/06/03 07:33:33;;;;;;;0.32;0.15;;;;;;;20.46;41.64;101772.25;5041523;28;20107;-51
2023/06/03 07:36:04;;;;;;;0.38;0.10;;;;;;;20.88;40.49;101763.91;5049814;28;20035;-54
2023/06/03 07:39:00;;;;;;;0.10;0.10;;;;;;;21.05;39.17;101774.03;5039786;28;20467;-54
2023/06/03 07:41:51;;;;;;;0.10;0.05;;;;;;;20.59;39.85;101768.72;5040790;28;20040;-48
2023/06/03 07:44:43;;;;;;;0.10;0.10;;;;;;;21.13;39.72;101775.56;5035363;28;20073;-51
2023/06/03 07:47:08;;;;;;;0.00;0.00;;;;;;;21.42;39.14;101766.03;5038162;28;20033;-54
2023/06/03 07:49:36;;;;;;;0.20;0.10;;;;;;;21.75;38.35;101778.31;5033088;28;20392;-52
2023/06/03 07:52:02;;;;;;;0.17;0.17;;;;;;;21.93;37.33;101778.22;5023237;28;20033;-53
2023/06/03 07:54:29;;;;;;;0.63;0.63;;;;;;;22.19;37.34;101780.34;5035670;28;20392;-55
2023/06/03 07:56:56;;;;;;;0.00;0.00;;;;;;;22.26;37.66;101778.31;5028557;28;20495;-51
2023/06/03 07:59:23;;;;;;;0.28;0.10;;;;;;;22.41;37.05;101779.72;5030273;28;20033;-52
2023/06/03 08:01:51;;;;;;;0.00;0.00;;;;;;;21.88;36.00;101767.66;5032802;28;20539;-49
2023/06/03 08:04:19;;;;;;;0.10;0.10;;;;;;;21.31;37.54;101773.50;5027589;28;20484;-52
2023/06/03 08:06:45;;;;;;;0.10;0.10;;;;;;;21.81;37.07;101771.25;5030378;28;20753;-50
2023/06/03 08:09:40;;;;;;;0.20;0.20;;;;;;;22.17;37.33;101779.97;5037510;28;20090;-54
2023/06/03 08:12:08;;;;;;;1.17;0.20;;;;;;;22.30;36.87;101764.53;5025180;28;20063;-51
2023/06/03 08:14:36;;;;;;;0.20;0.10;;;;;;;22.35;36.68;101775.09;5043662;28;20052;-52
2023/06/03 08:17:07;;;;;;;0.00;0.00;;;;;;;22.49;35.69;101772.22;5040484;28;20043;-54
2023/06/03 08:19:33;;;;;;;;;;;;;;;22.70;35.04;101771.22;5043043;28;20083;-50
2023/06/03 08:21:59;;;;;;;0.10;0.10;;;;;;;22.87;36.51;101779.25;5029985;28;19912;-49
2023/06/03 08:24:24;;;;;;;0.28;0.05;;;;;;;23.02;36.41;101768.84;5035097;28;20041;-52
2023/06/03 08:26:50;;;;;;;0.25;0.15;;;;;;;23.23;36.21;101768.56;5041917;28;20037;-52
2023/06/03 08:29:16;;;;;;;0.57;0.20;;;;;;;22.95;35.62;101766.19;5045865;28;20055;-52
2023/06/03 08:31:41;;;;;;;1.02;0.30;;;;;;;23.09;35.23;101783.28;5033204;28;20404;-48
2023/06/03 08:34:07;;;;;;;0.15;0.15;;;;;;;23.12;35.29;101774.22;5036800;28;20103;-52
2023/06/03 08:36:33;;;;;;;0.22;0.13;;;;;;;23.27;35.19;101767.34;5042642;28;20048;-54
2023/06/03 08:38:58;;;;;;;0.68;0.10;;;;;;;23.48;35.43;101779.28;5032635;28;20060;-52
2023/06/03 08:41:39;;;;;;;0.10;0.10;;;;;;;23.70;35.65;101772.22;5023269;28;20392;-53
2023/06/03 08:44:21;;;;;;;0.20;0.00;;;;;;;23.87;35.61;101784.94;5035208;28;20033;-50
2023/06/03 08:47:00;;;;;;;0.10;0.10;;;;;;;23.79;33.79;101780.75;5041303;28;20043;-54
2023/06/03 08:49:54;;;;;;;0.43;0.43;;;;;;;23.73;34.14;101785.19;5034131;28;20134;-49
2023/06/03 08:52:23;;;;;;;0.10;0.10;;;;;;;23.76;34.97;101779.59;5040790;28;20067;-53
2023/06/03 08:54:49;;;;;;;0.10;0.08;;;;;;;24.14;34.39;101777.41;5026163;28;21516;-54
2023/06/03 08:57:19;;;;;;;0.08;0.03;;;;;;;24.06;34.57;101778.78;5028322;28;20496;-52
2023/06/03 08:59:46;;;;;;;0.10;0.03;;;;;;;23.59;33.62;101777.91;5040248;28;20048;-53
2023/06/03 09:02:12;;;;;;;0.22;0.20;;;;;;;23.79;35.73;101767.00;5029595;28;20023;-56
2023/06/03 09:04:38;;;;;;;1.40;0.10;;;;;;;23.58;34.67;101772.81;5028313;28;21149;-55
2023/06/03 09:07:05;;;;;;;0.10;0.10;;;;;;;23.81;33.90;101767.34;5033237;28;20033;-55
2023/06/03 09:09:31;;;;;;;0.00;0.00;;;;;;;24.04;34.78;101762.66;5030098;28;20289;-56
2023/06/03 09:11:58;;;;;;;0.20;0.10;;;;;;;24.67;33.65;101759.91;5028046;28;20356;-50
2023/06/03 09:14:24;;;;;;;0.10;0.10;;;;;;;24.78;33.89;101761.28;5030958;28;20207;-54
2023/06/03 09:16:52;;;;;;;0.10;0.10;;;;;;;24.76;32.63;101769.19;5027827;28;20115;-55
2023/06/03 09:19:18;;;;;;;0.70;0.30;;;;;;;24.73;33.28;101761.00;5031525;28;20191;-55
2023/06/03 09:21:44;;;;;;;0.10;0.10;;;;;;;24.76;32.83;101768.41;5034032;28;20625;-55
2023/06/03 09:24:13;;;;;;;0.10;0.10;;;;;;;24.92;33.02;101772.03;5039132;28;20074;-51
2023/06/03 09:26:39;;;;;;;0.35;0.20;;;;;;;24.90;32.02;101762.63;5044909;28;20040;-53
2023/06/03 09:29:06;;;;;;;0.30;0.13;;;;;;;24.89;32.21;101761.06;5042036;28;20060;-54
2023/06/03 09:31:32;;;;;;;0.00;0.00;;;;;;;25.35;32.88;101765.59;5031475;28;20070;-55
2023/06/03 09:33:57;;;;;;;0.13;0.10;;;;;;;25.51;33.17;101766.41;5025628;28;20025;-56
2023/06/03 09:36:25;;;;;;;0.00;0.00;;;;;;;25.58;33.10;101760.72;5027046;28;20082;-56
2023/06/03 09:38:52;;;;;;;0.28;0.17;;;;;;;25.56;31.92;101771.41;5038358;28;20037;-56
2023/06/03 09:41:20;;;;;;;0.10;0.10;;;;;;;25.49;32.78;101770.81;5045250;28;20051;-52
2023/06/03 09:44:01;;;;;;;0.17;0.10;;;;;;;25.46;31.54;101766.91;5039388;28;20040;-52
2023/06/03 09:46:29;;;;;;;0.17;0.10;;;;;;;25.64;30.99;101760.97;5039817;28;20300;-53
2023/06/03 09:49:06;;;;;;;0.00;0.00;;;;;;;25.82;31.91;101766.88;5044434;28;20021;-53
2023/06/03 09:51:43;;;;;;;0.17;0.17;;;;;;;25.83;30.93;101765.63;5036069;28;20035;-53
2023/06/03 09:54:13;;;;;;;0.10;0.10;;;;;;;25.77;30.06;101764.59;5045811;28;20033;-55
2023/06/03 09:56:40;;;;;;;0.13;0.13;;;;;;;25.81;30.96;101765.28;5047104;28;20025;-55
2023/06/03 09:59:26;;;;;;;0.20;0.10;;;;;;;25.70;31.64;101764.78;5041954;28;20038;-56
2023/06/03 10:01:54;;;;;;;1.85;0.13;;;;;;;25.62;32.13;101766.16;5041602;28;20021;-53
2023/06/03 10:04:23;;;;;;;0.65;0.10;;;;;;;25.64;32.06;101767.28;5048196;28;20087;-54
2023/06/03 10:07:16;;;;;;;0.20;0.20;;;;;;;25.86;32.63;101757.25;5044929;28;20491;-56
2023/06/03 10:09:46;;;;;;;0.10;0.03;;;;;;;26.06;31.41;101753.66;5031556;28;20305;-55
2023/06/03 10:12:14;;;;;;;0.17;0.10;;;;;;;26.18;32.16;101761.22;5046353;28;20081;-52
2023/06/03 10:14:47;;;;;;;0.32;0.32;;;;;;;26.36;30.84;101761.53;5041321;28;20049;-54
2023/06/03 10:17:14;;;;;;;0.00;0.00;;;;;;;26.20;29.56;101761.56;5048015;28;20526;-56
2023/06/03 10:19:41;;;;;;;0.20;0.10;;;;;;;26.17;29.20;101757.69;5034290;28;20029;-54
2023/06/03 10:22:11;;;;;;;0.20;0.10;;;;;;;26.47;30.04;101762.81;5044240;28;20063;-53
2023/06/03 10:24:39;;;;;;;10.82;0.30;;;;;;;26.79;30.09;101759.16;5045663;28;20055;-55
2023/06/03 10:27:05;;;;;;;0.25;0.10;;;;;;;26.90;29.99;101767.94;5031524;28;20102;-56
2023/06/03 10:29:32;;;;;;;0.10;0.10;;;;;;;26.94;29.28;101762.28;5031515;28;20056;-49
2023/06/03 10:32:02;;;;;;;0.15;0.10;;;;;;;27.00;29.90;101761.31;5035862;28;20375;-53
2023/06/03 10:34:29;;;;;;;0.28;0.10;;;;;;;26.89;30.12;101754.56;5043137;28;20029;-52
2023/06/03 10:36:57;;;;;;;0.40;0.10;;;;;;;26.95;29.54;101748.03;5039645;28;20055;-53
2023/06/03 10:39:27;;;;;;;1.55;0.20;;;;;;;26.82;29.74;101754.75;5045378;28;20398;-56
2023/06/03 10:41:56;;;;;;;0.10;0.10;;;;;;;26.82;29.31;101743.69;5040010;28;20036;-53
2023/06/03 10:44:22;;;;;;;0.08;0.08;;;;;;;26.84;28.82;101741.25;5039994;28;20499;-56
2023/06/03 10:47:06;;;;;;;0.10;0.10;;;;;;;27.11;28.10;101741.63;5033531;28;21086;-56
2023/06/03 10:49:37;;;;;;;0.10;0.10;;;;;;;27.15;29.13;101736.75;5039390;28;20040;-56
2023/06/03 10:52:15;;;;;;;0.95;0.10;;;;;;;27.11;29.20;101728.56;5041429;28;20040;-56
2023/06/03 10:55:08;;;;;;;1.80;0.20;;;;;;;27.22;28.92;101733.75;5035960;28;20628;-54
2023/06/03 10:57:40;;;;;;;0.22;0.10;;;;;;;27.44;28.53;101741.00;5038257;28;20613;-55
2023/06/03 11:00:09;;;;;;;0.17;0.08;;;;;;;27.56;27.79;101731.13;5038130;28;20637;-56
2023/06/03 11:03:06;;;;;;;0.35;0.15;;;;;;;27.64;28.19;101715.84;5033911;28;20024;-55
2023/06/03 11:05:32;;;;;;;0.00;0.00;;;;;;;27.49;28.65;101728.56;5035349;28;20037;-49
2023/06/03 11:07:58;;;;;;;0.47;0.10;;;;;;;27.33;28.08;101726.69;5041421;28;20075;-55
2023/06/03 11:10:41;;;;;;;0.47;0.15;;;;;;;27.36;28.33;101723.06;5042258;28;20087;-54
2023/06/03 11:13:08;;;;;;;0.10;0.10;;;;;;;27.29;28.15;101726.00;5036932;28;20041;-56
2023/06/03 11:16:00;;;;;;;0.10;0.10;;;;;;;27.41;28.83;101716.19;5036638;28;20650;-55
2023/06/03 11:18:27;;;;;;;0.00;0.00;;;;;;;27.68;28.96;101727.53;5035010;28;20029;-55
2023/06/03 11:20:52;;;;;;;0.10;0.10;;;;;;;27.85;28.31;101723.44;5034829;28;20118;-54
2023/06/03 11:23:43;;;;;;;0.65;0.28;;;;;;;27.70;28.65;101727.88;5033985;28;20064;-55
2023/06/03 11:26:33;;;;;;;0.10;0.10;;;;;;;27.41;28.72;101718.97;5035023;28;20075;-51
2023/06/03 11:29:06;;;;;;;0.38;0.00;;;;;;;27.21;29.49;101723.91;5039762;28;20033;-56
2023/06/03 11:31:33;;;;;;;0.10;0.10;;;;;;;27.49;29.38;101717.50;5035247;28;20531;-54
2023/06/03 11:34:25;;;;;;;0.15;0.08;;;;;;;27.24;28.92;101715.50;5026310;28;20248;-56
2023/06/03 11:36:52;;;;;;;0.38;0.13;;;;;;;27.50;29.32;101716.28;5041550;28;20063;-54
2023/06/03 11:39:18;;;;;;;0.00;0.00;;;;;;;27.21;28.24;101704.53;5038856;28;20048;-51